CheckWX is a tool to help pilots better visualize weather data.  It is not intended as a substitute for an official pre-flight weather briefing.

01:12:56 UTC

KBVX METAR
Batesville Regional Airport
Batesville, Arkansas, USA
Current

17 mins ago

KBVX 200056Z AUTO 19004KT 10SM CLR 30/25 A2995 RMK AO2 SLP138 T03000250
Observed
Jul-20 @ 00:56 UTC
Wind
  • 190° at 4 KTS
Visibility
10 SM
Flight Rules
VFR
Cloud Levels
  • Clear skies
Temperature
30°C / 86°F
Dewpoint
25°C / 77°F
Heat Index
36°C / 97°F
Humidity
75%
Altimeter
29.95" Hg
Pressure
1014.22 hPa
Previous

1 hour ago

KBVX 192356Z AUTO 18006KT 10SM CLR 32/25 A2995 RMK AO2 SLP139 T03170250 10344 20317 55007
Observed
Jul-19 @ 23:56 UTC
Wind
  • 180° at 6 KTS
Visibility
10 SM
Flight Rules
VFR
Cloud Levels
  • Clear skies
Temperature
32°C / 90°F
Dewpoint
25°C / 77°F
Heat Index
40°C / 104°F
Humidity
67%
Altimeter
29.95" Hg
Pressure
1014.22 hPa
Previous

2 hours ago

KBVX 192256Z AUTO 20008KT 10SM CLR 33/25 A2995 RMK AO2 SLP138 T03280250
Observed
Jul-19 @ 22:56 UTC
Wind
  • 200° at 8 KTS
Visibility
10 SM
Flight Rules
VFR
Cloud Levels
  • Clear skies
Temperature
33°C / 91°F
Dewpoint
25°C / 77°F
Heat Index
40°C / 104°F
Humidity
63%
Altimeter
29.95" Hg
Pressure
1014.22 hPa